sensor_id;sensor_type;location;lat;lon;timestamp;P1;durP1;ratioP1;P2;durP2;ratioP2
75073;SDS011;63652;51.526;5.080;2022-10-30T00:00:38;17.70;;;7.13;;
75073;SDS011;63652;51.526;5.080;2022-10-30T00:03:04;16.63;;;5.65;;
75073;SDS011;63652;51.526;5.080;2022-10-30T00:05:30;13.82;;;6.65;;
75073;SDS011;63652;51.526;5.080;2022-10-30T00:07:56;13.55;;;5.47;;
75073;SDS011;63652;51.526;5.080;2022-10-30T00:10:22;13.23;;;5.70;;
75073;SDS011;63652;51.526;5.080;2022-10-30T00:12:48;12.82;;;4.85;;
75073;SDS011;63652;51.526;5.080;2022-10-30T00:15:13;10.50;;;5.57;;
75073;SDS011;63652;51.526;5.080;2022-10-30T00:17:39;13.88;;;5.47;;
75073;SDS011;63652;51.526;5.080;2022-10-30T00:20:05;13.80;;;5.45;;
75073;SDS011;63652;51.526;5.080;2022-10-30T00:22:31;11.05;;;5.00;;
75073;SDS011;63652;51.526;5.080;2022-10-30T00:24:57;15.50;;;5.25;;
75073;SDS011;63652;51.526;5.080;2022-10-30T00:27:22;14.25;;;5.82;;
75073;SDS011;63652;51.526;5.080;2022-10-30T00:29:47;13.73;;;5.30;;
75073;SDS011;63652;51.526;5.080;2022-10-30T00:32:13;11.80;;;5.55;;
75073;SDS011;63652;51.526;5.080;2022-10-30T00:34:38;14.02;;;6.38;;
75073;SDS011;63652;51.526;5.080;2022-10-30T00:37:04;13.27;;;5.45;;
75073;SDS011;63652;51.526;5.080;2022-10-30T00:39:29;14.20;;;5.38;;
75073;SDS011;63652;51.526;5.080;2022-10-30T00:41:54;12.32;;;5.30;;
75073;SDS011;63652;51.526;5.080;2022-10-30T00:47:11;14.85;;;6.00;;
75073;SDS011;63652;51.526;5.080;2022-10-30T00:49:55;12.15;;;5.40;;
75073;SDS011;63652;51.526;5.080;2022-10-30T00:52:24;16.10;;;5.80;;
75073;SDS011;63652;51.526;5.080;2022-10-30T00:54:51;10.77;;;5.03;;
75073;SDS011;63652;51.526;5.080;2022-10-30T00:57:18;11.80;;;5.60;;
75073;SDS011;63652;51.526;5.080;2022-10-30T00:59:43;12.18;;;5.82;;
75073;SDS011;63652;51.526;5.080;2022-10-30T01:02:10;13.75;;;4.90;;
75073;SDS011;63652;51.526;5.080;2022-10-30T01:04:35;12.00;;;5.40;;
75073;SDS011;63652;51.526;5.080;2022-10-30T01:07:06;12.57;;;5.30;;
75073;SDS011;63652;51.526;5.080;2022-10-30T01:09:35;12.55;;;5.55;;
75073;SDS011;63652;51.526;5.080;2022-10-30T01:12:01;10.15;;;4.95;;
75073;SDS011;63652;51.526;5.080;2022-10-30T01:14:27;13.80;;;5.05;;
75073;SDS011;63652;51.526;5.080;2022-10-30T01:35:51;13.52;;;6.68;;
75073;SDS011;63652;51.526;5.080;2022-10-30T01:38:33;11.32;;;5.38;;
75073;SDS011;63652;51.526;5.080;2022-10-30T01:41:00;13.20;;;5.88;;
75073;SDS011;63652;51.526;5.080;2022-10-30T01:43:26;15.45;;;5.60;;
75073;SDS011;63652;51.526;5.080;2022-10-30T01:51:39;12.70;;;5.95;;
75073;SDS011;63652;51.526;5.080;2022-10-30T02:00:29;14.80;;;4.93;;
75073;SDS011;63652;51.526;5.080;2022-10-30T02:02:54;14.10;;;6.43;;
75073;SDS011;63652;51.526;5.080;2022-10-30T02:05:24;9.90;;;5.25;;
75073;SDS011;63652;51.526;5.080;2022-10-30T02:07:53;13.15;;;5.15;;
75073;SDS011;63652;51.526;5.080;2022-10-30T02:10:19;11.40;;;5.57;;
75073;SDS011;63652;51.526;5.080;2022-10-30T02:12:44;13.85;;;5.55;;
75073;SDS011;63652;51.526;5.080;2022-10-30T02:15:09;12.57;;;5.43;;
75073;SDS011;63652;51.526;5.080;2022-10-30T02:17:35;11.85;;;6.30;;
75073;SDS011;63652;51.526;5.080;2022-10-30T02:20:02;12.95;;;5.00;;
75073;SDS011;63652;51.526;5.080;2022-10-30T02:22:27;14.48;;;5.75;;
75073;SDS011;63652;51.526;5.080;2022-10-30T02:24:53;14.70;;;5.78;;
75073;SDS011;63652;51.526;5.080;2022-10-30T02:27:18;14.60;;;5.65;;
75073;SDS011;63652;51.526;5.080;2022-10-30T02:29:44;14.93;;;5.63;;
75073;SDS011;63652;51.526;5.080;2022-10-30T02:32:09;13.73;;;5.22;;
75073;SDS011;63652;51.526;5.080;2022-10-30T02:34:34;13.00;;;5.35;;
75073;SDS011;63652;51.526;5.080;2022-10-30T02:37:00;13.23;;;6.43;;
75073;SDS011;63652;51.526;5.080;2022-10-30T02:39:26;12.32;;;5.90;;
75073;SDS011;63652;51.526;5.080;2022-10-30T02:41:51;12.13;;;6.10;;
75073;SDS011;63652;51.526;5.080;2022-10-30T02:44:16;14.68;;;5.72;;
75073;SDS011;63652;51.526;5.080;2022-10-30T02:46:42;13.32;;;5.88;;
75073;SDS011;63652;51.526;5.080;2022-10-30T02:49:07;10.95;;;5.60;;
75073;SDS011;63652;51.526;5.080;2022-10-30T02:51:32;11.60;;;5.00;;
75073;SDS011;63652;51.526;5.080;2022-10-30T02:53:58;13.05;;;6.13;;
75073;SDS011;63652;51.526;5.080;2022-10-30T02:56:24;10.90;;;5.57;;
75073;SDS011;63652;51.526;5.080;2022-10-30T02:58:49;16.42;;;6.88;;
75073;SDS011;63652;51.526;5.080;2022-10-30T03:01:16;18.27;;;7.07;;
75073;SDS011;63652;51.526;5.080;2022-10-30T03:03:42;13.77;;;6.43;;
75073;SDS011;63652;51.526;5.080;2022-10-30T03:06:09;16.73;;;5.90;;
75073;SDS011;63652;51.526;5.080;2022-10-30T03:08:35;18.85;;;7.03;;
75073;SDS011;63652;51.526;5.080;2022-10-30T03:11:02;13.45;;;5.95;;
75073;SDS011;63652;51.526;5.080;2022-10-30T03:13:32;14.40;;;5.57;;
75073;SDS011;63652;51.526;5.080;2022-10-30T03:15:59;12.82;;;5.88;;
75073;SDS011;63652;51.526;5.080;2022-10-30T03:18:28;10.52;;;5.60;;
75073;SDS011;63652;51.526;5.080;2022-10-30T03:21:00;13.18;;;6.13;;
75073;SDS011;63652;51.526;5.080;2022-10-30T03:23:27;16.77;;;6.10;;
75073;SDS011;63652;51.526;5.080;2022-10-30T03:25:53;12.32;;;5.80;;
75073;SDS011;63652;51.526;5.080;2022-10-30T03:28:20;12.63;;;5.93;;
75073;SDS011;63652;51.526;5.080;2022-10-30T03:30:47;12.68;;;6.20;;
75073;SDS011;63652;51.526;5.080;2022-10-30T03:33:13;13.75;;;6.68;;
75073;SDS011;63652;51.526;5.080;2022-10-30T03:35:38;14.45;;;6.18;;
75073;SDS011;63652;51.526;5.080;2022-10-30T03:38:04;14.88;;;6.60;;
75073;SDS011;63652;51.526;5.080;2022-10-30T03:40:29;14.10;;;5.97;;
75073;SDS011;63652;51.526;5.080;2022-10-30T03:42:54;14.98;;;6.68;;
75073;SDS011;63652;51.526;5.080;2022-10-30T03:45:20;14.88;;;6.30;;
75073;SDS011;63652;51.526;5.080;2022-10-30T03:47:45;19.15;;;7.30;;
75073;SDS011;63652;51.526;5.080;2022-10-30T03:50:10;17.20;;;7.28;;
75073;SDS011;63652;51.526;5.080;2022-10-30T03:52:36;13.57;;;5.75;;
75073;SDS011;63652;51.526;5.080;2022-10-30T03:55:01;14.60;;;6.70;;
75073;SDS011;63652;51.526;5.080;2022-10-30T03:57:26;11.88;;;5.82;;
75073;SDS011;63652;51.526;5.080;2022-10-30T03:59:52;12.38;;;6.60;;
75073;SDS011;63652;51.526;5.080;2022-10-30T04:02:17;10.98;;;5.65;;
75073;SDS011;63652;51.526;5.080;2022-10-30T04:11:20;15.60;;;6.07;;
75073;SDS011;63652;51.526;5.080;2022-10-30T04:13:46;9.38;;;4.47;;
75073;SDS011;63652;51.526;5.080;2022-10-30T04:16:11;11.77;;;5.82;;
75073;SDS011;63652;51.526;5.080;2022-10-30T04:18:40;13.93;;;5.82;;
75073;SDS011;63652;51.526;5.080;2022-10-30T04:21:05;11.10;;;4.80;;
75073;SDS011;63652;51.526;5.080;2022-10-30T04:23:30;13.40;;;5.80;;
75073;SDS011;63652;51.526;5.080;2022-10-30T04:25:58;12.10;;;5.95;;
75073;SDS011;63652;51.526;5.080;2022-10-30T04:28:24;11.68;;;4.95;;
75073;SDS011;63652;51.526;5.080;2022-10-30T04:30:49;11.65;;;6.38;;
75073;SDS011;63652;51.526;5.080;2022-10-30T04:33:15;11.23;;;5.95;;
75073;SDS011;63652;51.526;5.080;2022-10-30T04:35:41;14.77;;;5.43;;
75073;SDS011;63652;51.526;5.080;2022-10-30T04:38:07;10.07;;;5.28;;
75073;SDS011;63652;51.526;5.080;2022-10-30T04:40:37;14.70;;;7.22;;
75073;SDS011;63652;51.526;5.080;2022-10-30T04:43:04;12.65;;;5.47;;
75073;SDS011;63652;51.526;5.080;2022-10-30T04:45:30;12.02;;;6.28;;
75073;SDS011;63652;51.526;5.080;2022-10-30T04:48:00;15.52;;;6.05;;
75073;SDS011;63652;51.526;5.080;2022-10-30T04:50:26;10.95;;;5.53;;
75073;SDS011;63652;51.526;5.080;2022-10-30T04:52:58;17.08;;;5.75;;
75073;SDS011;63652;51.526;5.080;2022-10-30T04:55:28;15.15;;;5.82;;
75073;SDS011;63652;51.526;5.080;2022-10-30T04:57:54;13.20;;;6.45;;
75073;SDS011;63652;51.526;5.080;2022-10-30T05:00:21;13.30;;;6.78;;
75073;SDS011;63652;51.526;5.080;2022-10-30T05:02:46;14.48;;;7.28;;
75073;SDS011;63652;51.526;5.080;2022-10-30T05:05:12;15.30;;;6.43;;
75073;SDS011;63652;51.526;5.080;2022-10-30T05:07:37;16.27;;;7.35;;
75073;SDS011;63652;51.526;5.080;2022-10-30T05:10:04;14.68;;;5.60;;
75073;SDS011;63652;51.526;5.080;2022-10-30T05:12:29;16.25;;;6.43;;
75073;SDS011;63652;51.526;5.080;2022-10-30T05:14:55;12.70;;;6.38;;
75073;SDS011;63652;51.526;5.080;2022-10-30T05:17:20;17.33;;;6.45;;
75073;SDS011;63652;51.526;5.080;2022-10-30T05:19:45;13.05;;;5.28;;
75073;SDS011;63652;51.526;5.080;2022-10-30T05:22:11;11.05;;;5.43;;
75073;SDS011;63652;51.526;5.080;2022-10-30T05:24:36;16.23;;;6.43;;
75073;SDS011;63652;51.526;5.080;2022-10-30T05:27:02;15.52;;;6.25;;
75073;SDS011;63652;51.526;5.080;2022-10-30T05:29:27;16.45;;;6.15;;
75073;SDS011;63652;51.526;5.080;2022-10-30T05:31:53;14.85;;;6.80;;
75073;SDS011;63652;51.526;5.080;2022-10-30T05:34:18;13.05;;;5.75;;
75073;SDS011;63652;51.526;5.080;2022-10-30T05:36:43;12.30;;;6.22;;
75073;SDS011;63652;51.526;5.080;2022-10-30T05:39:09;15.23;;;5.50;;
75073;SDS011;63652;51.526;5.080;2022-10-30T05:41:34;10.73;;;5.40;;
75073;SDS011;63652;51.526;5.080;2022-10-30T05:44:00;13.57;;;5.47;;
75073;SDS011;63652;51.526;5.080;2022-10-30T05:46:25;14.88;;;5.65;;
75073;SDS011;63652;51.526;5.080;2022-10-30T05:48:50;15.70;;;6.35;;
75073;SDS011;63652;51.526;5.080;2022-10-30T05:51:16;14.32;;;6.35;;
75073;SDS011;63652;51.526;5.080;2022-10-30T05:53:41;16.02;;;7.47;;
75073;SDS011;63652;51.526;5.080;2022-10-30T05:56:06;14.57;;;6.60;;
75073;SDS011;63652;51.526;5.080;2022-10-30T05:58:32;11.70;;;6.20;;
75073;SDS011;63652;51.526;5.080;2022-10-30T06:00:57;13.48;;;6.53;;
75073;SDS011;63652;51.526;5.080;2022-10-30T06:03:23;9.75;;;5.70;;
75073;SDS011;63652;51.526;5.080;2022-10-30T06:05:48;9.40;;;5.28;;
75073;SDS011;63652;51.526;5.080;2022-10-30T06:08:13;13.30;;;4.82;;
75073;SDS011;63652;51.526;5.080;2022-10-30T06:10:42;12.27;;;5.35;;
75073;SDS011;63652;51.526;5.080;2022-10-30T06:13:08;11.48;;;5.25;;
75073;SDS011;63652;51.526;5.080;2022-10-30T06:15:34;11.68;;;5.90;;
75073;SDS011;63652;51.526;5.080;2022-10-30T06:18:00;11.57;;;5.10;;
75073;SDS011;63652;51.526;5.080;2022-10-30T06:20:26;10.82;;;6.20;;
75073;SDS011;63652;51.526;5.080;2022-10-30T06:25:22;12.13;;;5.97;;
75073;SDS011;63652;51.526;5.080;2022-10-30T06:27:48;13.23;;;6.63;;
75073;SDS011;63652;51.526;5.080;2022-10-30T06:30:13;11.27;;;4.95;;
75073;SDS011;63652;51.526;5.080;2022-10-30T06:32:39;10.13;;;5.63;;
75073;SDS011;63652;51.526;5.080;2022-10-30T06:35:04;15.00;;;6.78;;
75073;SDS011;63652;51.526;5.080;2022-10-30T06:37:29;10.48;;;5.40;;
75073;SDS011;63652;51.526;5.080;2022-10-30T06:39:55;15.68;;;5.22;;
75073;SDS011;63652;51.526;5.080;2022-10-30T06:42:20;12.48;;;5.90;;
75073;SDS011;63652;51.526;5.080;2022-10-30T06:44:45;12.93;;;6.07;;
75073;SDS011;63652;51.526;5.080;2022-10-30T06:47:12;13.63;;;6.25;;
75073;SDS011;63652;51.526;5.080;2022-10-30T06:49:38;11.68;;;5.75;;
75073;SDS011;63652;51.526;5.080;2022-10-30T06:52:03;13.20;;;6.40;;
75073;SDS011;63652;51.526;5.080;2022-10-30T06:54:29;14.45;;;6.15;;
75073;SDS011;63652;51.526;5.080;2022-10-30T06:56:54;11.15;;;5.97;;
75073;SDS011;63652;51.526;5.080;2022-10-30T06:59:19;14.07;;;6.72;;
75073;SDS011;63652;51.526;5.080;2022-10-30T07:01:45;13.40;;;6.47;;
75073;SDS011;63652;51.526;5.080;2022-10-30T07:04:10;14.52;;;6.88;;
75073;SDS011;63652;51.526;5.080;2022-10-30T07:06:36;15.13;;;6.93;;
75073;SDS011;63652;51.526;5.080;2022-10-30T07:09:01;18.30;;;8.95;;
75073;SDS011;63652;51.526;5.080;2022-10-30T07:11:26;17.25;;;8.02;;
75073;SDS011;63652;51.526;5.080;2022-10-30T07:13:52;15.82;;;6.43;;
75073;SDS011;63652;51.526;5.080;2022-10-30T07:16:17;14.07;;;7.10;;
75073;SDS011;63652;51.526;5.080;2022-10-30T07:18:42;12.68;;;6.57;;
75073;SDS011;63652;51.526;5.080;2022-10-30T07:21:08;14.00;;;6.05;;
75073;SDS011;63652;51.526;5.080;2022-10-30T07:23:33;11.07;;;6.18;;
75073;SDS011;63652;51.526;5.080;2022-10-30T07:25:58;17.35;;;6.65;;
75073;SDS011;63652;51.526;5.080;2022-10-30T07:28:24;14.63;;;7.53;;
75073;SDS011;63652;51.526;5.080;2022-10-30T07:30:49;12.95;;;6.18;;
75073;SDS011;63652;51.526;5.080;2022-10-30T07:33:15;17.95;;;6.35;;
75073;SDS011;63652;51.526;5.080;2022-10-30T07:35:40;12.40;;;6.22;;
75073;SDS011;63652;51.526;5.080;2022-10-30T07:38:09;19.92;;;7.90;;
75073;SDS011;63652;51.526;5.080;2022-10-30T07:40:41;20.00;;;8.73;;
75073;SDS011;63652;51.526;5.080;2022-10-30T07:43:09;19.85;;;8.65;;
75073;SDS011;63652;51.526;5.080;2022-10-30T07:45:39;18.33;;;6.97;;
75073;SDS011;63652;51.526;5.080;2022-10-30T07:48:05;12.48;;;6.88;;
75073;SDS011;63652;51.526;5.080;2022-10-30T07:50:31;15.55;;;7.25;;
75073;SDS011;63652;51.526;5.080;2022-10-30T07:52:56;15.57;;;7.05;;
75073;SDS011;63652;51.526;5.080;2022-10-30T07:55:22;13.77;;;7.25;;
75073;SDS011;63652;51.526;5.080;2022-10-30T07:57:48;13.88;;;6.30;;
75073;SDS011;63652;51.526;5.080;2022-10-30T08:00:17;19.60;;;8.30;;
75073;SDS011;63652;51.526;5.080;2022-10-30T08:02:49;19.52;;;8.20;;
75073;SDS011;63652;51.526;5.080;2022-10-30T08:05:20;15.45;;;7.75;;
75073;SDS011;63652;51.526;5.080;2022-10-30T08:07:45;17.42;;;8.35;;
75073;SDS011;63652;51.526;5.080;2022-10-30T08:10:12;15.23;;;8.45;;
75073;SDS011;63652;51.526;5.080;2022-10-30T08:12:58;15.88;;;8.85;;
75073;SDS011;63652;51.526;5.080;2022-10-30T08:15:26;16.88;;;8.63;;
75073;SDS011;63652;51.526;5.080;2022-10-30T08:17:54;18.85;;;9.02;;
75073;SDS011;63652;51.526;5.080;2022-10-30T08:20:23;14.93;;;8.10;;
75073;SDS011;63652;51.526;5.080;2022-10-30T08:22:52;18.83;;;8.73;;
75073;SDS011;63652;51.526;5.080;2022-10-30T08:25:20;19.40;;;9.25;;
75073;SDS011;63652;51.526;5.080;2022-10-30T08:27:52;19.02;;;8.75;;
75073;SDS011;63652;51.526;5.080;2022-10-30T08:30:25;19.63;;;8.90;;
75073;SDS011;63652;51.526;5.080;2022-10-30T08:33:06;25.58;;;10.23;;
75073;SDS011;63652;51.526;5.080;2022-10-30T08:35:35;19.70;;;8.65;;
75073;SDS011;63652;51.526;5.080;2022-10-30T08:38:04;18.85;;;9.07;;
75073;SDS011;63652;51.526;5.080;2022-10-30T08:40:30;20.00;;;9.82;;
75073;SDS011;63652;51.526;5.080;2022-10-30T08:42:56;19.45;;;11.52;;
75073;SDS011;63652;51.526;5.080;2022-10-30T08:45:22;24.02;;;9.57;;
75073;SDS011;63652;51.526;5.080;2022-10-30T08:47:54;23.00;;;9.73;;
75073;SDS011;63652;51.526;5.080;2022-10-30T08:50:21;20.75;;;10.50;;
75073;SDS011;63652;51.526;5.080;2022-10-30T08:52:46;22.80;;;9.30;;
75073;SDS011;63652;51.526;5.080;2022-10-30T08:55:12;18.50;;;10.00;;
75073;SDS011;63652;51.526;5.080;2022-10-30T08:57:37;25.98;;;11.50;;
75073;SDS011;63652;51.526;5.080;2022-10-30T09:00:03;21.98;;;10.82;;
75073;SDS011;63652;51.526;5.080;2022-10-30T09:02:29;23.67;;;11.00;;
75073;SDS011;63652;51.526;5.080;2022-10-30T09:04:55;23.35;;;10.82;;
75073;SDS011;63652;51.526;5.080;2022-10-30T09:07:20;19.48;;;9.25;;
75073;SDS011;63652;51.526;5.080;2022-10-30T09:09:45;21.92;;;10.05;;
75073;SDS011;63652;51.526;5.080;2022-10-30T09:12:11;19.58;;;9.75;;
75073;SDS011;63652;51.526;5.080;2022-10-30T09:14:36;21.20;;;9.27;;
75073;SDS011;63652;51.526;5.080;2022-10-30T09:17:02;24.15;;;9.27;;
75073;SDS011;63652;51.526;5.080;2022-10-30T09:19:27;18.50;;;9.48;;
75073;SDS011;63652;51.526;5.080;2022-10-30T09:21:52;19.98;;;9.50;;
75073;SDS011;63652;51.526;5.080;2022-10-30T09:24:18;19.30;;;9.18;;
75073;SDS011;63652;51.526;5.080;2022-10-30T09:26:44;20.90;;;10.43;;
75073;SDS011;63652;51.526;5.080;2022-10-30T09:29:09;18.80;;;9.18;;
75073;SDS011;63652;51.526;5.080;2022-10-30T09:31:35;17.70;;;9.57;;
75073;SDS011;63652;51.526;5.080;2022-10-30T09:34:00;23.25;;;9.65;;
75073;SDS011;63652;51.526;5.080;2022-10-30T09:36:25;27.35;;;9.82;;
75073;SDS011;63652;51.526;5.080;2022-10-30T09:38:51;22.35;;;7.55;;
75073;SDS011;63652;51.526;5.080;2022-10-30T09:46:46;20.55;;;8.18;;
75073;SDS011;63652;51.526;5.080;2022-10-30T09:52:26;24.05;;;9.32;;
75073;SDS011;63652;51.526;5.080;2022-10-30T10:00:11;18.00;;;10.18;;
75073;SDS011;63652;51.526;5.080;2022-10-30T10:05:24;22.17;;;9.23;;
75073;SDS011;63652;51.526;5.080;2022-10-30T10:07:53;25.73;;;8.38;;
75073;SDS011;63652;51.526;5.080;2022-10-30T10:10:42;16.77;;;7.80;;
75073;SDS011;63652;51.526;5.080;2022-10-30T10:13:44;20.42;;;7.93;;
75073;SDS011;63652;51.526;5.080;2022-10-30T10:16:13;19.92;;;8.38;;
75073;SDS011;63652;51.526;5.080;2022-10-30T10:18:48;16.23;;;7.30;;
75073;SDS011;63652;51.526;5.080;2022-10-30T10:21:19;19.15;;;7.63;;
75073;SDS011;63652;51.526;5.080;2022-10-30T10:23:49;16.95;;;8.07;;
75073;SDS011;63652;51.526;5.080;2022-10-30T10:29:12;18.70;;;7.70;;
75073;SDS011;63652;51.526;5.080;2022-10-30T10:31:46;18.13;;;7.68;;
75073;SDS011;63652;51.526;5.080;2022-10-30T10:39:37;19.00;;;6.97;;
75073;SDS011;63652;51.526;5.080;2022-10-30T10:45:25;21.48;;;6.85;;
75073;SDS011;63652;51.526;5.080;2022-10-30T10:48:02;15.07;;;6.40;;
75073;SDS011;63652;51.526;5.080;2022-10-30T10:50:31;12.40;;;5.05;;
75073;SDS011;63652;51.526;5.080;2022-10-30T10:53:06;15.57;;;6.68;;
75073;SDS011;63652;51.526;5.080;2022-10-30T10:55:36;10.20;;;5.53;;
75073;SDS011;63652;51.526;5.080;2022-10-30T10:59:04;16.95;;;6.72;;
75073;SDS011;63652;51.526;5.080;2022-10-30T11:01:11;14.57;;;6.15;;
75073;SDS011;63652;51.526;5.080;2022-10-30T11:03:48;16.25;;;5.40;;
75073;SDS011;63652;51.526;5.080;2022-10-30T11:06:27;14.57;;;5.57;;
75073;SDS011;63652;51.526;5.080;2022-10-30T11:09:00;17.20;;;6.60;;
75073;SDS011;63652;51.526;5.080;2022-10-30T11:11:36;14.05;;;6.05;;
75073;SDS011;63652;51.526;5.080;2022-10-30T11:14:01;12.98;;;5.57;;
75073;SDS011;63652;51.526;5.080;2022-10-30T11:16:37;22.20;;;6.95;;
75073;SDS011;63652;51.526;5.080;2022-10-30T11:19:12;13.45;;;5.85;;
75073;SDS011;63652;51.526;5.080;2022-10-30T11:21:38;14.50;;;5.95;;
75073;SDS011;63652;51.526;5.080;2022-10-30T11:26:55;12.38;;;5.05;;
75073;SDS011;63652;51.526;5.080;2022-10-30T11:29:23;17.15;;;6.15;;
75073;SDS011;63652;51.526;5.080;2022-10-30T11:32:03;21.27;;;5.93;;
75073;SDS011;63652;51.526;5.080;2022-10-30T11:36:58;15.95;;;6.25;;
75073;SDS011;63652;51.526;5.080;2022-10-30T11:39:42;16.30;;;5.72;;
75073;SDS011;63652;51.526;5.080;2022-10-30T11:42:16;16.00;;;4.95;;
75073;SDS011;63652;51.526;5.080;2022-10-30T11:44:49;17.83;;;6.03;;
75073;SDS011;63652;51.526;5.080;2022-10-30T11:47:16;13.38;;;4.97;;
75073;SDS011;63652;51.526;5.080;2022-10-30T11:52:23;12.07;;;5.75;;
75073;SDS011;63652;51.526;5.080;2022-10-30T11:54:53;13.35;;;4.80;;
75073;SDS011;63652;51.526;5.080;2022-10-30T11:57:32;16.60;;;5.43;;
75073;SDS011;63652;51.526;5.080;2022-10-30T11:59:59;12.90;;;5.53;;
75073;SDS011;63652;51.526;5.080;2022-10-30T12:02:28;14.45;;;4.78;;
75073;SDS011;63652;51.526;5.080;2022-10-30T12:05:00;13.88;;;5.40;;
75073;SDS011;63652;51.526;5.080;2022-10-30T12:07:29;12.95;;;5.68;;
75073;SDS011;63652;51.526;5.080;2022-10-30T12:09:55;12.77;;;5.45;;
75073;SDS011;63652;51.526;5.080;2022-10-30T12:12:26;13.00;;;4.85;;
75073;SDS011;63652;51.526;5.080;2022-10-30T12:15:26;12.40;;;4.97;;
75073;SDS011;63652;51.526;5.080;2022-10-30T12:17:51;13.98;;;5.53;;
75073;SDS011;63652;51.526;5.080;2022-10-30T12:20:22;14.80;;;5.25;;
75073;SDS011;63652;51.526;5.080;2022-10-30T12:22:48;15.45;;;5.20;;
75073;SDS011;63652;51.526;5.080;2022-10-30T12:25:15;12.30;;;5.35;;
75073;SDS011;63652;51.526;5.080;2022-10-30T12:27:47;13.95;;;4.93;;
75073;SDS011;63652;51.526;5.080;2022-10-30T12:30:14;12.32;;;4.78;;
75073;SDS011;63652;51.526;5.080;2022-10-30T12:37:55;15.20;;;5.25;;
75073;SDS011;63652;51.526;5.080;2022-10-30T12:40:34;13.07;;;6.05;;
75073;SDS011;63652;51.526;5.080;2022-10-30T12:43:14;15.35;;;5.97;;
75073;SDS011;63652;51.526;5.080;2022-10-30T12:45:42;13.73;;;5.43;;
75073;SDS011;63652;51.526;5.080;2022-10-30T12:50:51;11.90;;;5.65;;
75073;SDS011;63652;51.526;5.080;2022-10-30T12:56:15;15.57;;;5.60;;
75073;SDS011;63652;51.526;5.080;2022-10-30T12:58:45;15.98;;;5.65;;
75073;SDS011;63652;51.526;5.080;2022-10-30T13:01:55;20.23;;;5.93;;
75073;SDS011;63652;51.526;5.080;2022-10-30T13:04:21;15.15;;;6.18;;
75073;SDS011;63652;51.526;5.080;2022-10-30T13:06:50;12.88;;;5.20;;
75073;SDS011;63652;51.526;5.080;2022-10-30T13:10:03;14.38;;;5.18;;
75073;SDS011;63652;51.526;5.080;2022-10-30T13:12:18;11.48;;;5.60;;
75073;SDS011;63652;51.526;5.080;2022-10-30T13:14:48;11.07;;;5.45;;
75073;SDS011;63652;51.526;5.080;2022-10-30T13:17:17;12.98;;;5.55;;
75073;SDS011;63652;51.526;5.080;2022-10-30T13:19:46;18.13;;;5.82;;
75073;SDS011;63652;51.526;5.080;2022-10-30T13:22:19;11.15;;;5.10;;
75073;SDS011;63652;51.526;5.080;2022-10-30T13:25:03;15.27;;;5.22;;
75073;SDS011;63652;51.526;5.080;2022-10-30T13:30:09;11.23;;;4.55;;
75073;SDS011;63652;51.526;5.080;2022-10-30T13:40:59;10.02;;;4.22;;
75073;SDS011;63652;51.526;5.080;2022-10-30T13:46:34;11.70;;;5.10;;
75073;SDS011;63652;51.526;5.080;2022-10-30T13:49:17;14.18;;;5.50;;
75073;SDS011;63652;51.526;5.080;2022-10-30T13:51:57;11.55;;;5.20;;
75073;SDS011;63652;51.526;5.080;2022-10-30T13:54:31;10.70;;;4.75;;
75073;SDS011;63652;51.526;5.080;2022-10-30T13:57:02;12.27;;;4.60;;
75073;SDS011;63652;51.526;5.080;2022-10-30T13:59:46;9.82;;;4.68;;
75073;SDS011;63652;51.526;5.080;2022-10-30T14:02:16;13.10;;;5.00;;
75073;SDS011;63652;51.526;5.080;2022-10-30T14:04:56;13.18;;;4.65;;
75073;SDS011;63652;51.526;5.080;2022-10-30T14:15:14;13.10;;;4.68;;
75073;SDS011;63652;51.526;5.080;2022-10-30T14:20:37;15.32;;;5.82;;
75073;SDS011;63652;51.526;5.080;2022-10-30T14:26:03;16.98;;;5.28;;
75073;SDS011;63652;51.526;5.080;2022-10-30T14:28:30;14.35;;;4.88;;
75073;SDS011;63652;51.526;5.080;2022-10-30T14:31:03;15.18;;;5.10;;
75073;SDS011;63652;51.526;5.080;2022-10-30T14:36:14;11.82;;;4.80;;
75073;SDS011;63652;51.526;5.080;2022-10-30T14:39:24;16.00;;;4.93;;
75073;SDS011;63652;51.526;5.080;2022-10-30T14:44:05;12.90;;;4.78;;
75073;SDS011;63652;51.526;5.080;2022-10-30T14:49:56;15.70;;;6.25;;
75073;SDS011;63652;51.526;5.080;2022-10-30T14:57:52;16.98;;;6.32;;
75073;SDS011;63652;51.526;5.080;2022-10-30T15:05:39;14.20;;;5.95;;
75073;SDS011;63652;51.526;5.080;2022-10-30T15:13:45;19.38;;;10.13;;
75073;SDS011;63652;51.526;5.080;2022-10-30T15:16:13;15.35;;;6.75;;
75073;SDS011;63652;51.526;5.080;2022-10-30T15:18:39;14.38;;;6.05;;
75073;SDS011;63652;51.526;5.080;2022-10-30T15:21:06;15.30;;;7.75;;
75073;SDS011;63652;51.526;5.080;2022-10-30T15:23:33;16.38;;;6.13;;
75073;SDS011;63652;51.526;5.080;2022-10-30T15:26:01;10.27;;;5.07;;
75073;SDS011;63652;51.526;5.080;2022-10-30T15:28:30;16.50;;;6.38;;
75073;SDS011;63652;51.526;5.080;2022-10-30T15:30:58;14.40;;;7.05;;
75073;SDS011;63652;51.526;5.080;2022-10-30T15:33:31;15.77;;;9.82;;
75073;SDS011;63652;51.526;5.080;2022-10-30T15:36:01;35.28;;;18.10;;
75073;SDS011;63652;51.526;5.080;2022-10-30T15:38:26;23.25;;;11.45;;
75073;SDS011;63652;51.526;5.080;2022-10-30T15:41:00;17.10;;;7.18;;
75073;SDS011;63652;51.526;5.080;2022-10-30T15:43:29;20.30;;;11.75;;
75073;SDS011;63652;51.526;5.080;2022-10-30T15:45:56;16.75;;;9.32;;
75073;SDS011;63652;51.526;5.080;2022-10-30T15:48:28;18.65;;;7.13;;
75073;SDS011;63652;51.526;5.080;2022-10-30T15:51:02;15.02;;;7.10;;
75073;SDS011;63652;51.526;5.080;2022-10-30T15:53:51;17.75;;;7.38;;
75073;SDS011;63652;51.526;5.080;2022-10-30T15:58:50;13.45;;;4.47;;
75073;SDS011;63652;51.526;5.080;2022-10-30T16:01:31;9.55;;;5.03;;
75073;SDS011;63652;51.526;5.080;2022-10-30T16:04:13;10.88;;;3.20;;
75073;SDS011;63652;51.526;5.080;2022-10-30T16:06:39;8.80;;;3.03;;
75073;SDS011;63652;51.526;5.080;2022-10-30T16:09:04;7.03;;;2.85;;
75073;SDS011;63652;51.526;5.080;2022-10-30T16:11:41;9.35;;;2.85;;
75073;SDS011;63652;51.526;5.080;2022-10-30T16:14:16;4.90;;;2.42;;
75073;SDS011;63652;51.526;5.080;2022-10-30T16:16:44;9.95;;;2.47;;
75073;SDS011;63652;51.526;5.080;2022-10-30T16:19:15;6.68;;;2.33;;
75073;SDS011;63652;51.526;5.080;2022-10-30T16:21:55;5.25;;;2.33;;
75073;SDS011;63652;51.526;5.080;2022-10-30T16:24:26;8.35;;;2.95;;
75073;SDS011;63652;51.526;5.080;2022-10-30T16:27:00;6.57;;;3.05;;
75073;SDS011;63652;51.526;5.080;2022-10-30T16:29:30;6.25;;;2.53;;
75073;SDS011;63652;51.526;5.080;2022-10-30T16:31:59;7.22;;;2.83;;
75073;SDS011;63652;51.526;5.080;2022-10-30T16:34:27;4.72;;;2.30;;
75073;SDS011;63652;51.526;5.080;2022-10-30T16:36:55;7.85;;;2.83;;
75073;SDS011;63652;51.526;5.080;2022-10-30T16:39:21;9.98;;;2.80;;
75073;SDS011;63652;51.526;5.080;2022-10-30T16:41:47;7.95;;;2.78;;
75073;SDS011;63652;51.526;5.080;2022-10-30T16:44:16;7.05;;;2.38;;
75073;SDS011;63652;51.526;5.080;2022-10-30T16:49:16;11.07;;;3.13;;
75073;SDS011;63652;51.526;5.080;2022-10-30T16:51:43;10.90;;;3.03;;
75073;SDS011;63652;51.526;5.080;2022-10-30T16:54:16;7.03;;;2.10;;
75073;SDS011;63652;51.526;5.080;2022-10-30T16:56:43;5.80;;;2.60;;
75073;SDS011;63652;51.526;5.080;2022-10-30T16:59:13;6.90;;;2.10;;
75073;SDS011;63652;51.526;5.080;2022-10-30T17:01:40;5.82;;;2.38;;
75073;SDS011;63652;51.526;5.080;2022-10-30T17:04:06;10.98;;;2.97;;
75073;SDS011;63652;51.526;5.080;2022-10-30T17:06:41;6.07;;;2.65;;
75073;SDS011;63652;51.526;5.080;2022-10-30T17:09:29;7.22;;;3.05;;
75073;SDS011;63652;51.526;5.080;2022-10-30T17:12:03;8.10;;;2.80;;